createdAt,value
2022-10-11T00:00:55.165Z,79.56
2022-10-11T00:03:22.618Z,78.83
2022-10-11T00:05:49.721Z,80.32
2022-10-11T00:08:16.951Z,78.35
2022-10-11T00:10:44.025Z,77.40
2022-10-11T00:13:11.180Z,75.32
2022-10-11T00:15:40.753Z,76.75
2022-10-11T00:18:07.669Z,77.49
2022-10-11T00:20:34.596Z,77.81
2022-10-11T00:23:01.741Z,77.05
2022-10-11T00:25:28.691Z,78.23
2022-10-11T00:27:55.869Z,77.83
2022-10-11T00:30:22.793Z,77.95
2022-10-11T00:32:50.632Z,77.54
2022-10-11T00:35:17.921Z,78.65
2022-10-11T00:37:45.197Z,76.79
2022-10-11T00:40:16.868Z,77.15
2022-10-11T00:42:44.080Z,76.94
2022-10-11T00:45:26.023Z,75.49
2022-10-11T00:48:00.930Z,74.93
2022-10-11T00:50:32.371Z,75.92
2022-10-11T00:53:05.953Z,74.94
2022-10-11T00:55:38.961Z,76.32
2022-10-11T00:58:07.550Z,75.62
2022-10-11T01:00:34.745Z,76.46
2022-10-11T01:03:03.266Z,75.03
2022-10-11T01:05:31.464Z,76.32
2022-10-11T01:08:01.004Z,76.02
2022-10-11T01:10:29.021Z,76.70
2022-10-11T01:13:17.607Z,76.16
2022-10-11T01:16:02.289Z,75.18
2022-10-11T01:18:54.963Z,75.27
2022-10-11T01:22:21.369Z,74.59
2022-10-11T01:25:54.495Z,76.36
2022-10-11T01:28:43.126Z,75.79
2022-10-11T01:31:38.520Z,75.89
2022-10-11T01:34:17.075Z,75.85
2022-10-11T01:37:07.937Z,74.01
2022-10-11T01:39:48.607Z,74.90
2022-10-11T01:42:18.136Z,76.68
2022-10-11T01:44:49.134Z,75.99
2022-10-11T01:47:23.722Z,77.02
2022-10-11T01:50:01.331Z,76.22
2022-10-11T01:52:33.913Z,76.81
2022-10-11T01:55:39.580Z,77.98
2022-10-11T01:58:32.477Z,76.75
2022-10-11T02:01:27.958Z,75.95
2022-10-11T02:04:23.985Z,74.80
2022-10-11T02:07:16.291Z,77.24
2022-10-11T02:09:57.644Z,78.15
2022-10-11T02:12:36.746Z,76.88
2022-10-11T02:15:09.274Z,75.08
2022-10-11T02:17:44.964Z,75.82
2022-10-11T02:20:19.606Z,75.56
2022-10-11T02:22:51.584Z,76.13
2022-10-11T02:25:25.672Z,76.48
2022-10-11T02:27:58.351Z,78.31
2022-10-11T02:30:25.430Z,77.31
2022-10-11T02:32:55.457Z,77.98
2022-10-11T02:35:27.438Z,77.85
2022-10-11T02:38:05.886Z,77.60
2022-10-11T02:40:37.377Z,75.34
2022-10-11T02:43:17.510Z,77.16
2022-10-11T02:45:55.261Z,78.52
2022-10-11T02:48:25.095Z,77.43
2022-10-11T02:50:53.526Z,75.66
2022-10-11T02:53:22.767Z,74.94
2022-10-11T02:55:52.232Z,75.11
2022-10-11T02:58:19.733Z,74.64
2022-10-11T03:00:46.944Z,75.76
2022-10-11T03:03:14.161Z,76.85
2022-10-11T03:05:41.534Z,75.66
2022-10-11T03:08:11.177Z,77.59
2022-10-11T03:10:38.864Z,78.50
2022-10-11T03:13:05.998Z,77.82
2022-10-11T03:15:34.041Z,77.64
2022-10-11T03:18:01.163Z,75.55
2022-10-11T03:20:28.210Z,76.59
2022-10-11T03:22:55.316Z,75.63
2022-10-11T03:25:22.413Z,77.17
2022-10-11T03:27:49.321Z,77.25
2022-10-11T03:30:18.466Z,77.41
2022-10-11T03:32:46.430Z,75.70
2022-10-11T03:35:13.617Z,77.91
2022-10-11T03:37:40.734Z,77.97
2022-10-11T03:40:08.858Z,76.61
2022-10-11T03:42:37.051Z,77.90
2022-10-11T03:45:08.192Z,76.10
2022-10-11T03:47:37.609Z,75.21
2022-10-11T03:50:07.205Z,77.86
2022-10-11T03:52:34.642Z,76.53
2022-10-11T03:55:01.610Z,76.47
2022-10-11T03:57:28.591Z,77.51
2022-10-11T03:59:55.522Z,79.79
2022-10-11T04:02:22.491Z,80.00
2022-10-11T04:04:49.702Z,80.32
2022-10-11T04:07:16.653Z,80.02
2022-10-11T04:09:43.556Z,79.07
2022-10-11T04:12:10.551Z,80.32
2022-10-11T04:14:37.731Z,80.20
2022-10-11T04:17:04.899Z,80.29
2022-10-11T04:19:31.883Z,80.86
2022-10-11T04:21:58.970Z,81.41
2022-10-11T04:24:26.084Z,81.54
2022-10-11T04:26:53.209Z,81.62
2022-10-11T04:29:20.112Z,81.48
2022-10-11T04:31:47.318Z,80.58
2022-10-11T04:34:14.673Z,77.40
2022-10-11T04:36:44.349Z,76.56
2022-10-11T04:39:13.352Z,76.58
2022-10-11T04:41:40.516Z,80.34
2022-10-11T04:44:07.400Z,82.19
2022-10-11T04:46:34.490Z,82.60
2022-10-11T04:49:01.433Z,81.43
2022-10-11T04:51:28.935Z,82.05
2022-10-11T04:53:55.933Z,79.92
2022-10-11T04:56:22.852Z,77.87
2022-10-11T04:58:53.934Z,80.31
2022-10-11T05:01:21.636Z,79.74
2022-10-11T05:03:49.411Z,78.39
2022-10-11T05:06:16.663Z,77.27
2022-10-11T05:08:43.582Z,77.44
2022-10-11T05:11:17.094Z,76.99
2022-10-11T05:13:45.852Z,78.69
2022-10-11T05:16:14.062Z,81.22
2022-10-11T05:18:41.782Z,81.02
2022-10-11T05:21:26.660Z,81.77
2022-10-11T05:23:56.925Z,82.44
2022-10-11T05:26:27.564Z,81.31
2022-10-11T05:28:55.894Z,81.34
2022-10-11T05:31:23.166Z,82.04
2022-10-11T05:33:50.900Z,80.09
2022-10-11T05:36:18.213Z,79.03
2022-10-11T05:38:45.568Z,77.58
2022-10-11T05:41:16.488Z,77.93
2022-10-11T05:43:44.774Z,79.73
2022-10-11T05:46:13.417Z,81.65
2022-10-11T05:48:41.148Z,83.02
2022-10-11T05:51:10.808Z,82.98
2022-10-11T05:53:39.741Z,81.56
2022-10-11T05:56:22.887Z,80.98
2022-10-11T05:58:50.859Z,80.24
2022-10-11T06:01:24.920Z,82.00
2022-10-11T06:03:52.670Z,81.64
2022-10-11T06:06:20.762Z,82.05
2022-10-11T06:08:48.224Z,82.56
2022-10-11T06:11:22.252Z,80.47
2022-10-11T06:13:49.245Z,81.64
2022-10-11T06:16:16.386Z,81.26
2022-10-11T06:18:43.378Z,80.32
2022-10-11T06:21:10.445Z,82.62
2022-10-11T06:23:37.623Z,80.48
2022-10-11T06:26:08.603Z,81.08
2022-10-11T06:28:37.287Z,80.92
2022-10-11T06:31:06.521Z,83.07
2022-10-11T06:33:34.553Z,83.16
2022-10-11T06:36:07.309Z,80.87
2022-10-11T06:38:34.638Z,79.04
2022-10-11T06:41:23.675Z,79.43
2022-10-11T06:43:51.139Z,80.28
2022-10-11T06:46:24.400Z,80.10
2022-10-11T06:48:52.466Z,78.97
2022-10-11T06:51:23.057Z,79.43
2022-10-11T06:53:56.665Z,79.00
2022-10-11T06:56:25.113Z,81.92
2022-10-11T06:58:54.764Z,82.33
2022-10-11T07:01:23.928Z,81.07
2022-10-11T07:03:53.747Z,81.17
2022-10-11T07:06:25.892Z,81.39
2022-10-11T07:08:54.461Z,78.86
2022-10-11T07:11:25.958Z,79.59
2022-10-11T07:13:59.408Z,79.33
2022-10-11T07:16:30.785Z,79.95
2022-10-11T07:19:01.079Z,78.91
2022-10-11T07:21:31.219Z,79.96
2022-10-11T07:23:58.606Z,78.71
2022-10-11T07:26:27.974Z,79.37
2022-10-11T07:28:55.223Z,80.27
2022-10-11T07:31:26.784Z,80.28
2022-10-11T07:33:54.364Z,79.48
2022-10-11T07:36:23.140Z,78.75
2022-10-11T07:38:51.022Z,79.78
2022-10-11T07:41:17.990Z,82.24
2022-10-11T07:43:46.981Z,81.90
2022-10-11T07:46:14.770Z,83.12
2022-10-11T07:48:42.074Z,82.37
2022-10-11T07:51:16.074Z,82.57
2022-10-11T07:53:46.677Z,80.71
2022-10-11T07:56:17.899Z,82.74
2022-10-11T07:58:49.180Z,82.29
2022-10-11T08:01:16.157Z,81.51
2022-10-11T08:03:43.282Z,82.58
2022-10-11T08:06:14.052Z,82.34
2022-10-11T08:08:41.245Z,82.93
2022-10-11T08:11:08.599Z,82.31
2022-10-11T08:13:35.905Z,80.80
2022-10-11T08:16:12.183Z,81.05
2022-10-11T08:18:39.217Z,82.65
2022-10-11T08:21:12.834Z,80.73
2022-10-11T08:23:39.905Z,81.76
2022-10-11T08:26:07.808Z,80.05
2022-10-11T08:28:35.604Z,79.93
2022-10-11T08:31:03.069Z,79.73
2022-10-11T08:33:30.974Z,81.76
2022-10-11T08:35:58.437Z,82.75
2022-10-11T08:38:25.860Z,81.94
2022-10-11T08:40:59.646Z,83.12
2022-10-11T08:43:46.713Z,81.83
2022-10-11T08:46:15.333Z,82.28
2022-10-11T08:48:47.314Z,82.17
2022-10-11T08:51:43.279Z,81.92
2022-10-11T08:54:32.131Z,80.15
2022-10-11T08:57:03.874Z,80.56
2022-10-11T08:59:44.928Z,79.84
2022-10-11T09:03:08.592Z,79.64
2022-10-11T09:05:54.709Z,80.48
2022-10-11T09:08:52.606Z,80.84
2022-10-11T09:11:51.693Z,82.14
2022-10-11T09:14:37.159Z,80.14
2022-10-11T09:17:45.421Z,79.61
2022-10-11T09:20:53.118Z,79.77
2022-10-11T09:23:56.935Z,78.89
2022-10-11T09:26:34.670Z,81.24
2022-10-11T09:29:10.743Z,78.69
2022-10-11T09:31:37.942Z,79.72
2022-10-11T09:34:14.879Z,79.91
2022-10-11T09:37:13.772Z,78.32
2022-10-11T09:39:50.989Z,78.42
2022-10-11T09:42:18.008Z,78.11
2022-10-11T09:44:51.147Z,78.30
2022-10-11T09:47:29.033Z,77.41
2022-10-11T09:50:15.361Z,78.08
2022-10-11T09:52:56.470Z,76.68
2022-10-11T09:55:54.410Z,77.14
2022-10-11T09:58:34.888Z,77.22
2022-10-11T10:01:08.581Z,78.15
2022-10-11T10:03:39.151Z,78.10
2022-10-11T10:06:28.582Z,76.89
2022-10-11T10:09:15.468Z,75.85
2022-10-11T10:11:42.842Z,75.87
2022-10-11T10:14:22.048Z,77.62
2022-10-11T10:16:58.285Z,76.91
2022-10-11T10:19:25.634Z,75.51
2022-10-11T10:21:55.348Z,76.38
2022-10-11T10:24:33.608Z,76.60
2022-10-11T10:27:20.907Z,76.84
2022-10-11T10:30:09.143Z,77.57
2022-10-11T10:33:05.913Z,77.27
2022-10-11T10:36:12.484Z,78.63
2022-10-11T10:38:57.422Z,74.97
2022-10-11T10:41:24.375Z,74.68
2022-10-11T10:43:59.092Z,75.05
2022-10-11T10:46:52.042Z,76.60
2022-10-11T10:49:53.522Z,78.23
2022-10-11T10:52:45.259Z,75.70
2022-10-11T10:55:25.582Z,76.65
2022-10-11T10:58:12.864Z,76.06
2022-10-11T11:00:52.223Z,75.08
2022-10-11T11:03:27.627Z,78.21
2022-10-11T11:06:17.549Z,76.51
2022-10-11T11:09:15.505Z,78.02
2022-10-11T11:12:07.450Z,76.15
2022-10-11T11:14:50.873Z,76.65
2022-10-11T11:17:40.275Z,75.47
2022-10-11T11:20:44.384Z,76.77
2022-10-11T11:23:29.428Z,77.55
2022-10-11T11:26:19.696Z,76.47
2022-10-11T11:29:18.236Z,78.67
2022-10-11T11:32:02.455Z,76.46
2022-10-11T11:34:47.474Z,76.27
2022-10-11T11:37:32.364Z,76.58
2022-10-11T11:40:15.906Z,75.66
2022-10-11T11:45:57.863Z,75.59
2022-10-11T11:48:26.956Z,74.84
2022-10-11T11:51:15.001Z,75.87
2022-10-11T11:54:09.282Z,75.49
2022-10-11T11:56:45.240Z,75.12
2022-10-11T11:59:30.608Z,74.52
2022-10-11T12:02:38.375Z,75.82
2022-10-11T12:05:18.002Z,76.75
2022-10-11T12:08:08.197Z,76.22
2022-10-11T12:10:54.213Z,75.83
2022-10-11T12:13:38.569Z,75.08
2022-10-11T12:16:19.504Z,75.22
2022-10-11T12:19:01.484Z,74.48
2022-10-11T12:21:43.987Z,74.74
2022-10-11T12:24:19.928Z,74.53
2022-10-11T12:27:37.973Z,74.91
2022-10-11T12:30:47.215Z,73.40
2022-10-11T12:33:21.396Z,75.10
2022-10-11T12:35:54.169Z,74.15
2022-10-11T12:38:28.765Z,73.84
2022-10-11T12:41:09.690Z,72.81
2022-10-11T12:44:18.612Z,73.83
2022-10-11T12:46:53.566Z,74.70
2022-10-11T12:49:54.035Z,73.84
2022-10-11T12:52:49.071Z,74.46
2022-10-11T12:55:43.959Z,73.74
2022-10-11T12:58:38.613Z,73.02
2022-10-11T13:01:15.020Z,73.82
2022-10-11T13:03:59.290Z,71.58
2022-10-11T13:06:47.272Z,73.82
2022-10-11T13:09:39.443Z,73.27
2022-10-11T13:12:14.761Z,71.87
2022-10-11T13:14:58.101Z,73.18
2022-10-11T13:17:39.846Z,73.74
2022-10-11T13:20:24.764Z,73.25
2022-10-11T13:22:56.506Z,73.27
2022-10-11T13:25:27.960Z,72.79
2022-10-11T13:27:58.620Z,72.44
2022-10-11T13:30:34.349Z,72.59
2022-10-11T13:33:23.514Z,72.91
2022-10-11T13:35:52.349Z,72.90
2022-10-11T13:38:30.996Z,72.64
2022-10-11T13:41:02.841Z,73.13
2022-10-11T13:43:30.953Z,73.38
2022-10-11T13:46:01.342Z,72.51
2022-10-11T13:48:31.902Z,73.73
2022-10-11T13:51:28.340Z,71.57
2022-10-11T13:54:13.417Z,73.25
2022-10-11T13:56:52.090Z,73.84
2022-10-11T13:59:25.557Z,73.87
2022-10-11T14:02:00.092Z,72.66
2022-10-11T14:04:30.036Z,73.26
2022-10-11T14:07:02.655Z,74.41
2022-10-11T14:09:37.865Z,72.25
2022-10-11T14:12:32.863Z,74.15
2022-10-11T14:15:02.147Z,72.51
2022-10-11T14:17:46.041Z,72.97
2022-10-11T14:20:39.172Z,73.01
2022-10-11T14:23:06.670Z,73.08
2022-10-11T14:25:34.524Z,72.14
2022-10-11T14:28:01.805Z,71.29
2022-10-11T14:30:31.653Z,71.66
2022-10-11T14:33:01.676Z,72.83
2022-10-11T14:35:32.439Z,73.17
2022-10-11T14:37:59.639Z,70.38
2022-10-11T14:40:30.495Z,71.03
2022-10-11T14:42:58.178Z,70.67
2022-10-11T14:45:25.369Z,71.31
2022-10-11T14:47:52.482Z,73.00
2022-10-11T14:50:21.462Z,71.31
2022-10-11T14:52:48.548Z,70.22
2022-10-11T14:55:15.567Z,70.28
2022-10-11T14:57:42.488Z,70.20
2022-10-11T15:00:36.983Z,71.12
2022-10-11T15:03:07.407Z,71.39
2022-10-11T15:05:34.829Z,71.68
2022-10-11T15:08:04.190Z,72.75
2022-10-11T15:10:37.806Z,71.77
2022-10-11T15:13:07.132Z,70.71
2022-10-11T15:15:36.899Z,70.41
2022-10-11T15:18:07.636Z,70.46
2022-10-11T15:20:40.120Z,71.26
2022-10-11T15:23:09.911Z,73.24
2022-10-11T15:25:39.882Z,70.45
2022-10-11T15:28:07.932Z,71.95
2022-10-11T15:30:41.372Z,70.86
2022-10-11T15:33:09.176Z,70.61
2022-10-11T15:35:36.531Z,70.94
2022-10-11T15:38:03.932Z,70.52
2022-10-11T15:40:35.523Z,71.47
2022-10-11T15:43:03.487Z,71.42
2022-10-11T15:45:31.280Z,70.05
2022-10-11T15:47:58.410Z,69.77
2022-10-11T15:50:35.241Z,70.05
2022-10-11T15:53:13.503Z,70.54
2022-10-11T15:55:55.613Z,69.89
2022-10-11T15:58:27.013Z,70.72
2022-10-11T16:00:58.480Z,70.14
2022-10-11T16:03:28.930Z,70.82
2022-10-11T16:05:58.945Z,69.89
2022-10-11T16:08:29.813Z,69.98
2022-10-11T16:10:57.289Z,70.58
2022-10-11T16:13:24.516Z,70.41
2022-10-11T16:15:51.567Z,71.46
2022-10-11T16:18:21.183Z,70.02
2022-10-11T16:20:51.814Z,70.96
2022-10-11T16:23:20.780Z,72.51
2022-10-11T16:26:05.136Z,71.07
2022-10-11T16:28:33.023Z,71.08
2022-10-11T16:31:00.221Z,71.75
2022-10-11T16:33:27.414Z,71.63
2022-10-11T16:36:14.314Z,71.26
2022-10-11T16:38:41.582Z,72.51
2022-10-11T16:41:08.626Z,73.27
2022-10-11T16:43:35.762Z,71.22
2022-10-11T16:46:02.981Z,73.68
2022-10-11T16:48:30.489Z,73.37
2022-10-11T16:51:08.794Z,72.35
2022-10-11T16:53:36.132Z,73.08
2022-10-11T16:56:11.336Z,73.74
2022-10-11T16:58:38.493Z,73.77
2022-10-11T17:01:10.112Z,73.28
2022-10-11T17:03:37.534Z,73.09
2022-10-11T17:06:05.975Z,72.71
2022-10-11T17:08:33.441Z,74.37
2022-10-11T17:11:00.723Z,73.58
2022-10-11T17:13:27.958Z,72.61
2022-10-11T17:15:54.909Z,72.23
2022-10-11T17:18:22.151Z,74.48
2022-10-11T17:20:49.496Z,73.80
2022-10-11T17:23:16.642Z,74.46
2022-10-11T17:25:46.259Z,73.94
2022-10-11T17:28:15.875Z,73.41
2022-10-11T17:30:42.817Z,71.61
2022-10-11T17:33:09.985Z,72.66
2022-10-11T17:35:36.937Z,74.41
2022-10-11T17:38:06.418Z,72.46
2022-10-11T17:40:33.475Z,72.96
2022-10-11T17:43:00.422Z,74.20
2022-10-11T17:45:27.325Z,75.36
2022-10-11T17:47:54.329Z,74.85
2022-10-11T17:50:21.344Z,73.25
2022-10-11T17:52:49.081Z,74.45
2022-10-11T17:55:16.250Z,75.61
2022-10-11T17:57:43.707Z,75.49
2022-10-11T18:00:11.708Z,73.26
2022-10-11T18:02:40.177Z,72.29
2022-10-11T18:05:08.640Z,73.40
2022-10-11T18:07:35.625Z,73.17
2022-10-11T18:10:03.039Z,74.95
2022-10-11T18:12:30.991Z,73.80
2022-10-11T18:14:58.075Z,74.30
2022-10-11T18:17:25.065Z,73.07
2022-10-11T18:19:52.004Z,73.01
2022-10-11T18:22:19.122Z,73.32
2022-10-11T18:24:46.103Z,73.09
2022-10-11T18:27:13.439Z,72.31
2022-10-11T18:29:40.738Z,72.72
2022-10-11T18:32:07.687Z,73.78
2022-10-11T18:34:34.633Z,72.35
2022-10-11T18:37:02.212Z,73.10
2022-10-11T18:39:29.170Z,74.22
2022-10-11T18:41:56.613Z,74.67
2022-10-11T18:44:23.562Z,72.79
2022-10-11T18:46:51.055Z,73.33
2022-10-11T18:49:18.053Z,73.28
2022-10-11T18:51:46.372Z,73.48
2022-10-11T18:54:16.743Z,73.03
2022-10-11T18:56:47.173Z,74.01
2022-10-11T18:59:14.151Z,73.70
2022-10-11T19:01:44.597Z,72.67
2022-10-11T19:04:18.379Z,72.53
2022-10-11T19:06:48.880Z,72.67
2022-10-11T19:09:26.029Z,72.32
2022-10-11T19:11:55.779Z,71.14
2022-10-11T19:14:30.109Z,72.11
2022-10-11T19:16:57.738Z,73.67
2022-10-11T19:19:27.959Z,72.77
2022-10-11T19:21:55.539Z,72.93
2022-10-11T19:24:26.544Z,73.60
2022-10-11T19:26:59.715Z,72.49
2022-10-11T19:29:28.717Z,73.02
2022-10-11T19:31:58.461Z,73.07
2022-10-11T19:34:27.601Z,73.16
2022-10-11T19:36:56.709Z,72.19
2022-10-11T19:39:24.643Z,73.57
2022-10-11T19:41:52.584Z,72.95
2022-10-11T19:44:20.236Z,72.14
2022-10-11T19:46:52.053Z,72.38
2022-10-11T19:49:23.975Z,72.73
2022-10-11T19:51:52.693Z,73.41
2022-10-11T19:54:19.794Z,73.47
2022-10-11T19:56:47.141Z,74.93
2022-10-11T19:59:14.997Z,73.71
2022-10-11T20:01:43.299Z,72.92
2022-10-11T20:04:33.228Z,73.53
2022-10-11T20:07:00.128Z,74.66
2022-10-11T20:09:29.841Z,72.58
2022-10-11T20:11:57.317Z,72.92
2022-10-11T20:14:24.455Z,73.49
2022-10-11T20:16:52.063Z,75.48
2022-10-11T20:19:19.453Z,74.40
2022-10-11T20:21:47.281Z,73.13
2022-10-11T20:24:14.286Z,72.52
2022-10-11T20:26:41.229Z,72.99
2022-10-11T20:29:08.388Z,72.54
2022-10-11T20:31:40.781Z,73.46
2022-10-11T20:34:09.041Z,72.84
2022-10-11T20:36:36.602Z,73.04
2022-10-11T20:39:05.240Z,73.39
2022-10-11T20:41:39.988Z,74.47
2022-10-11T20:44:08.819Z,74.26
2022-10-11T20:46:39.141Z,73.89
2022-10-11T20:49:10.409Z,73.60
2022-10-11T20:51:39.935Z,74.43
2022-10-11T20:54:06.928Z,73.63
2022-10-11T20:56:35.050Z,73.03
2022-10-11T20:59:02.438Z,73.51
2022-10-11T21:01:34.359Z,72.73
2022-10-11T21:04:02.441Z,73.08
2022-10-11T21:06:32.020Z,73.00
2022-10-11T21:09:00.249Z,73.84
2022-10-11T21:11:28.849Z,73.27
2022-10-11T21:14:00.944Z,74.85
2022-10-11T21:16:28.223Z,75.02
2022-10-11T21:18:58.057Z,74.68
2022-10-11T21:21:26.172Z,74.38
2022-10-11T21:23:58.102Z,74.17
2022-10-11T21:26:25.836Z,75.05
2022-10-11T21:28:53.288Z,75.86
2022-10-11T21:31:23.048Z,75.95
2022-10-11T21:33:50.189Z,74.75
2022-10-11T21:36:20.486Z,75.57
2022-10-11T21:38:48.308Z,75.85
2022-10-11T21:41:21.816Z,75.56
2022-10-11T21:43:49.780Z,75.17
2022-10-11T21:46:47.426Z,76.62
2022-10-11T21:49:14.997Z,76.94
2022-10-11T21:51:42.623Z,77.22
2022-10-11T21:54:09.837Z,77.88
2022-10-11T21:56:37.337Z,75.13
2022-10-11T21:59:06.633Z,75.40
2022-10-11T22:01:37.100Z,75.27
2022-10-11T22:04:07.106Z,77.91
2022-10-11T22:06:35.117Z,76.75
2022-10-11T22:09:03.692Z,76.75
2022-10-11T22:11:31.201Z,77.18
2022-10-11T22:13:58.476Z,76.51
2022-10-11T22:16:25.455Z,75.03
2022-10-11T22:18:54.313Z,73.53
2022-10-11T22:21:23.568Z,73.57
2022-10-11T22:23:53.188Z,74.78
2022-10-11T22:26:23.916Z,75.76
2022-10-11T22:28:51.544Z,74.44
2022-10-11T22:31:20.376Z,75.04
2022-10-11T22:33:48.094Z,75.52
2022-10-11T22:36:19.131Z,74.08
2022-10-11T22:38:46.935Z,75.41
2022-10-11T22:41:14.035Z,76.38
2022-10-11T22:43:41.481Z,75.59
2022-10-11T22:46:08.737Z,75.71
2022-10-11T22:48:36.410Z,75.92
2022-10-11T22:51:03.584Z,73.74
2022-10-11T22:53:30.784Z,75.30
2022-10-11T22:55:58.312Z,74.96
2022-10-11T22:58:25.540Z,75.49
2022-10-11T23:00:52.709Z,74.67
2022-10-11T23:03:20.146Z,74.85
2022-10-11T23:05:57.897Z,76.20
2022-10-11T23:08:25.523Z,75.66
2022-10-11T23:10:52.866Z,76.77
2022-10-11T23:13:20.071Z,76.00
2022-10-11T23:15:47.214Z,74.47
2022-10-11T23:18:16.558Z,75.34
2022-10-11T23:20:43.506Z,75.50
2022-10-11T23:23:10.667Z,75.59
2022-10-11T23:25:37.587Z,74.93
2022-10-11T23:28:05.062Z,74.24
2022-10-11T23:30:32.049Z,76.85
2022-10-11T23:32:59.263Z,76.65
2022-10-11T23:35:26.307Z,75.53
2022-10-11T23:37:54.827Z,74.92
2022-10-11T23:40:21.836Z,74.34
2022-10-11T23:42:48.968Z,74.42
2022-10-11T23:45:16.637Z,74.35
2022-10-11T23:47:43.736Z,74.63
2022-10-11T23:50:10.941Z,75.40
2022-10-11T23:52:38.084Z,75.50
2022-10-11T23:55:05.473Z,74.91
2022-10-11T23:57:32.799Z,74.70
2022-10-11T23:59:59.718Z,74.21
